Terminal Aerodrome Forecast
Issued by NWS

Home | Current Version | Previous Version | Text Only | Print | Product List | Glossary Off
Versions: 1 2 3 4 5 6 7 8 9 10 11 12 13 14
000 FTUS41 KBOX 181120 TAFFMH TAF KFMH 181120Z 1812/1912 00000KT P6SM VCSH OVC025 FM181400 00000KT P6SM OVC030 FM181900 18007KT P6SM OVC020 FM182100 17006KT P6SM OVC015 FM190400 24006KT P6SM BKN030 FM190500 25006KT P6SM BKN040=

USA.gov is the U.S. government's official web portal to all federal, state and local government web resources and services.